createdAt,value
2022-08-31T00:02:23.759Z,102047.69
2022-08-31T00:04:52.274Z,102040.16
2022-08-31T00:07:21.612Z,102049.53
2022-08-31T00:09:49.749Z,102046.59
2022-08-31T00:12:18.237Z,102048.19
2022-08-31T00:14:46.621Z,102047.25
2022-08-31T00:17:14.740Z,102047.25
2022-08-31T00:19:42.814Z,102045.97
2022-08-31T00:22:10.903Z,102044.63
2022-08-31T00:24:40.224Z,102048.63
2022-08-31T00:27:08.075Z,102042.03
2022-08-31T00:29:35.994Z,102044.56
2022-08-31T00:32:05.063Z,102046.78
2022-08-31T00:34:33.545Z,102044.75
2022-08-31T00:37:01.988Z,102045.97
2022-08-31T00:39:30.205Z,102045.00
2022-08-31T00:41:59.608Z,102038.66
2022-08-31T00:44:27.665Z,102040.50
2022-08-31T00:46:55.660Z,102038.53
2022-08-31T00:49:27.927Z,102036.59
2022-08-31T00:51:59.956Z,102038.13
2022-08-31T00:54:31.865Z,102040.97
2022-08-31T00:57:01.666Z,102050.97
2022-08-31T00:59:30.091Z,102050.84
2022-08-31T01:01:58.081Z,102054.28
2022-08-31T01:04:26.104Z,102053.53
2022-08-31T01:06:54.832Z,102054.63
2022-08-31T01:09:24.476Z,102062.56
2022-08-31T01:11:52.802Z,102056.84
2022-08-31T01:14:22.356Z,102063.63
2022-08-31T01:16:53.484Z,102065.09
2022-08-31T01:19:29.907Z,102060.78
2022-08-31T01:22:03.351Z,102059.97
2022-08-31T01:24:35.745Z,102064.97
2022-08-31T01:27:07.777Z,102067.50
2022-08-31T01:29:37.320Z,102072.25
2022-08-31T01:32:06.499Z,102065.91
2022-08-31T01:34:35.217Z,102068.19
2022-08-31T01:37:03.905Z,102069.56
2022-08-31T01:39:32.051Z,102069.88
2022-08-31T01:42:01.362Z,102065.91
2022-08-31T01:44:30.143Z,102069.38
2022-08-31T01:46:58.080Z,102067.34
2022-08-31T01:49:28.031Z,102063.03
2022-08-31T01:51:56.498Z,102065.38
2022-08-31T01:54:26.667Z,102074.63
2022-08-31T01:56:55.726Z,102068.28
2022-08-31T01:59:41.815Z,102072.69
2022-08-31T02:02:41.990Z,102072.28
2022-08-31T02:05:12.168Z,102075.56
2022-08-31T02:07:40.079Z,102066.03
2022-08-31T02:10:08.509Z,102067.25
2022-08-31T02:12:36.493Z,102068.00
2022-08-31T02:15:10.859Z,102061.47
2022-08-31T02:17:38.796Z,102050.22
2022-08-31T02:20:09.268Z,102054.56
2022-08-31T02:22:37.532Z,102051.78
2022-08-31T02:25:06.243Z,102048.50
2022-08-31T02:27:37.488Z,102049.94
2022-08-31T02:30:11.869Z,102052.38
2022-08-31T02:32:39.867Z,102058.59
2022-08-31T02:35:09.456Z,102050.34
2022-08-31T02:37:37.936Z,102052.06
2022-08-31T02:40:11.933Z,102051.41
2022-08-31T02:42:53.167Z,102048.56
2022-08-31T02:45:25.858Z,102045.84
2022-08-31T02:47:58.929Z,102045.91
2022-08-31T02:50:30.506Z,102041.84
2022-08-31T02:52:59.483Z,102053.16
2022-08-31T02:55:28.941Z,102050.88
2022-08-31T02:57:56.923Z,102042.09
2022-08-31T03:00:26.259Z,102048.31
2022-08-31T03:02:54.973Z,102052.00
2022-08-31T03:05:23.857Z,102048.09
2022-08-31T03:07:52.322Z,102048.19
2022-08-31T03:10:22.345Z,102041.97
2022-08-31T03:12:51.057Z,102055.22
2022-08-31T03:15:20.466Z,102040.19
2022-08-31T03:17:49.830Z,102047.16
2022-08-31T03:20:22.255Z,102043.28
2022-08-31T03:22:50.734Z,102041.50
2022-08-31T03:25:21.107Z,102034.69
2022-08-31T03:27:50.424Z,102037.56
2022-08-31T03:30:21.539Z,102028.53
2022-08-31T03:33:03.143Z,102039.16
2022-08-31T03:35:33.478Z,102035.69
2022-08-31T03:38:03.315Z,102042.94
2022-08-31T03:40:32.364Z,102043.50
2022-08-31T03:43:00.598Z,102048.78
2022-08-31T03:45:31.999Z,102047.16
2022-08-31T03:48:00.379Z,102046.63
2022-08-31T03:50:31.654Z,102049.88
2022-08-31T03:53:10.697Z,102058.09
2022-08-31T03:55:41.027Z,102067.91
2022-08-31T03:58:10.507Z,102069.63
2022-08-31T04:00:40.077Z,102079.72
2022-08-31T04:03:19.401Z,102060.88
2022-08-31T04:06:10.702Z,102067.91
2022-08-31T04:09:01.407Z,102073.19
2022-08-31T04:12:01.583Z,102075.31
2022-08-31T04:14:48.113Z,102074.06
2022-08-31T04:17:34.697Z,102080.72
2022-08-31T04:20:29.443Z,102086.25
2022-08-31T04:22:59.527Z,102080.47
2022-08-31T04:25:38.075Z,102085.16
2022-08-31T04:28:09.036Z,102082.44
2022-08-31T04:30:39.535Z,102085.03
2022-08-31T04:33:07.832Z,102087.34
2022-08-31T04:35:35.966Z,102096.56
2022-08-31T04:38:05.268Z,102086.97
2022-08-31T04:40:33.253Z,102093.03
2022-08-31T04:43:01.284Z,102088.94
2022-08-31T04:45:29.325Z,102091.75
2022-08-31T04:47:57.280Z,102092.13
2022-08-31T04:50:25.408Z,102090.88
2022-08-31T04:53:08.707Z,102095.19
2022-08-31T04:55:40.993Z,102099.84
2022-08-31T04:58:10.344Z,102094.94
2022-08-31T05:00:38.637Z,102093.72
2022-08-31T05:03:22.991Z,102097.63
2022-08-31T05:05:54.332Z,102100.22
2022-08-31T05:08:23.917Z,102094.31
2022-08-31T05:10:52.149Z,102096.59
2022-08-31T05:13:20.954Z,102098.41
2022-08-31T05:15:50.707Z,102103.31
2022-08-31T05:18:22.896Z,102098.13
2022-08-31T05:20:57.311Z,102098.53
2022-08-31T05:23:26.818Z,102095.47
2022-08-31T05:25:54.757Z,102105.13
2022-08-31T05:28:24.664Z,102100.59
2022-08-31T05:30:52.604Z,102100.00
2022-08-31T05:33:33.120Z,102105.66
2022-08-31T05:36:02.608Z,102104.06
2022-08-31T05:38:31.968Z,102105.09
2022-08-31T05:41:00.610Z,102102.78
2022-08-31T05:43:29.918Z,102110.16
2022-08-31T05:45:58.621Z,102114.22
2022-08-31T05:48:33.465Z,102111.25
2022-08-31T05:51:04.151Z,102112.00
2022-08-31T05:53:34.003Z,102115.53
2022-08-31T05:56:04.424Z,102107.69
2022-08-31T05:58:34.402Z,102111.75
2022-08-31T06:01:02.523Z,102117.28
2022-08-31T06:04:01.797Z,102114.56
2022-08-31T06:06:30.393Z,102117.44
2022-08-31T06:09:00.289Z,102120.94
2022-08-31T06:11:31.520Z,102120.03
2022-08-31T06:14:01.547Z,102112.59
2022-08-31T06:16:32.279Z,102120.09
2022-08-31T06:19:03.403Z,102117.09
2022-08-31T06:21:33.492Z,102118.63
2022-08-31T06:24:04.496Z,102105.97
2022-08-31T06:26:35.531Z,102115.06
2022-08-31T06:29:09.220Z,102124.66
2022-08-31T06:31:42.569Z,102116.06
2022-08-31T06:34:11.310Z,102112.84
2022-08-31T06:36:57.854Z,102110.34
2022-08-31T06:39:36.050Z,102109.06
2022-08-31T06:42:12.727Z,102108.63
2022-08-31T06:45:19.486Z,102116.94
2022-08-31T06:47:58.309Z,102104.47
2022-08-31T06:50:28.437Z,102104.47
2022-08-31T06:52:58.582Z,102101.50
2022-08-31T06:55:50.756Z,102101.13
2022-08-31T06:58:37.500Z,102100.59
2022-08-31T07:01:36.306Z,102104.91
2022-08-31T07:04:35.854Z,102105.34
2022-08-31T07:07:05.832Z,102110.09
2022-08-31T07:09:34.053Z,102098.22
2022-08-31T07:12:04.028Z,102108.22
2022-08-31T07:14:32.051Z,102110.41
2022-08-31T07:17:02.963Z,102105.66
2022-08-31T07:19:32.309Z,102107.75
2022-08-31T07:22:02.573Z,102117.38
2022-08-31T07:24:35.100Z,102115.38
2022-08-31T07:27:10.034Z,102125.22
2022-08-31T07:29:44.209Z,102119.69
2022-08-31T07:32:16.152Z,102125.69
2022-08-31T07:34:45.042Z,102123.84
2022-08-31T07:37:43.225Z,102120.56
2022-08-31T07:40:29.550Z,102120.97
2022-08-31T07:43:04.671Z,102127.13
2022-08-31T07:45:37.688Z,102123.13
2022-08-31T07:48:08.141Z,102132.97
2022-08-31T07:50:58.714Z,102138.53
2022-08-31T07:53:42.735Z,102129.84
2022-08-31T07:56:35.069Z,102130.41
2022-08-31T07:59:15.948Z,102131.22
2022-08-31T08:01:46.725Z,102129.09
2022-08-31T08:04:25.262Z,102136.94
2022-08-31T08:07:16.663Z,102132.41
2022-08-31T08:09:50.849Z,102128.59
2022-08-31T08:12:38.670Z,102131.13
2022-08-31T08:15:16.380Z,102133.38
2022-08-31T08:18:03.332Z,102130.19
2022-08-31T08:20:38.040Z,102136.81
2022-08-31T08:23:13.705Z,102134.78
2022-08-31T08:25:45.066Z,102124.97
2022-08-31T08:28:38.777Z,102127.16
2022-08-31T08:31:14.130Z,102112.97
2022-08-31T08:33:42.511Z,102122.59
2022-08-31T08:36:10.639Z,102119.03
2022-08-31T08:38:43.586Z,102122.63
2022-08-31T08:41:16.116Z,102125.75
2022-08-31T08:43:52.449Z,102120.41
2022-08-31T08:47:37.651Z,102128.00
2022-08-31T08:49:25.845Z,102118.91
2022-08-31T08:52:03.208Z,102121.88
2022-08-31T08:54:33.989Z,102121.59
2022-08-31T08:57:12.847Z,102124.38
2022-08-31T08:59:42.824Z,102120.38
2022-08-31T09:02:16.218Z,102113.63
2022-08-31T09:05:04.340Z,102127.84
2022-08-31T09:08:16.204Z,102126.06
2022-08-31T09:10:46.644Z,102132.22
2022-08-31T09:13:25.686Z,102125.16
2022-08-31T09:16:20.648Z,102124.63
2022-08-31T09:18:55.000Z,102117.66
2022-08-31T09:21:25.993Z,102118.78
2022-08-31T09:24:01.647Z,102115.47
2022-08-31T09:26:35.505Z,102112.81
2022-08-31T09:29:14.993Z,102105.75
2022-08-31T09:31:46.476Z,102111.47
2022-08-31T09:34:29.537Z,102116.75
2022-08-31T09:37:16.309Z,102114.22
2022-08-31T09:39:47.631Z,102119.13
2022-08-31T09:42:28.984Z,102105.28
2022-08-31T09:45:00.084Z,102116.94
2022-08-31T09:47:48.570Z,102120.00
2022-08-31T09:50:31.733Z,102122.38
2022-08-31T09:53:32.143Z,102114.19
2022-08-31T09:56:19.880Z,102113.97
2022-08-31T09:58:50.948Z,102116.09
2022-08-31T10:01:23.353Z,102110.94
2022-08-31T10:03:54.060Z,102100.63
2022-08-31T10:06:46.649Z,102091.72
2022-08-31T10:09:28.580Z,102095.97
2022-08-31T10:12:00.490Z,102094.06
2022-08-31T10:14:37.143Z,102102.34
2022-08-31T10:17:11.731Z,102102.13
2022-08-31T10:19:56.191Z,102095.47
2022-08-31T10:22:32.402Z,102090.72
2022-08-31T10:25:14.637Z,102089.41
2022-08-31T10:27:48.660Z,102090.34
2022-08-31T10:30:28.551Z,102090.69
2022-08-31T10:33:04.334Z,102082.81
2022-08-31T10:35:37.533Z,102077.69
2022-08-31T10:38:21.216Z,102075.88
2022-08-31T10:40:55.022Z,102092.06
2022-08-31T10:43:29.161Z,102083.66
2022-08-31T10:46:00.166Z,102077.09
2022-08-31T10:48:28.618Z,102079.88
2022-08-31T10:51:05.749Z,102076.78
2022-08-31T10:53:52.253Z,102072.44
2022-08-31T10:56:26.305Z,102062.50
2022-08-31T10:59:14.461Z,102074.72
2022-08-31T11:01:52.983Z,102073.94
2022-08-31T11:04:44.777Z,102067.16
2022-08-31T11:07:27.552Z,102072.84
2022-08-31T11:10:05.737Z,102080.75
2022-08-31T11:12:42.350Z,102076.41
2022-08-31T11:15:51.607Z,102069.38
2022-08-31T11:19:04.077Z,102064.91
2022-08-31T11:21:52.172Z,102050.22
2022-08-31T11:24:49.217Z,102045.41
2022-08-31T11:27:25.333Z,102053.13
2022-08-31T11:29:58.661Z,102057.25
2022-08-31T11:32:36.699Z,102058.81
2022-08-31T11:35:10.234Z,102058.72
2022-08-31T11:37:54.235Z,102057.72
2022-08-31T11:41:11.179Z,102051.84
2022-08-31T11:43:45.940Z,102060.50
2022-08-31T11:46:45.790Z,102060.50
2022-08-31T11:49:40.458Z,102063.56
2022-08-31T11:52:25.482Z,102054.84
2022-08-31T11:55:17.877Z,102056.84
2022-08-31T11:58:21.441Z,102051.25
2022-08-31T12:00:58.675Z,102055.75
2022-08-31T12:03:50.463Z,102053.03
2022-08-31T12:07:06.972Z,102044.66
2022-08-31T12:10:14.080Z,102036.75
2022-08-31T12:13:18.787Z,102032.06
2022-08-31T12:16:37.801Z,102030.34
2022-08-31T12:19:43.199Z,102025.41
2022-08-31T12:22:43.496Z,102032.75
2022-08-31T12:25:23.344Z,102030.38
2022-08-31T12:28:07.502Z,102032.34
2022-08-31T12:30:35.528Z,102031.63
2022-08-31T12:33:10.927Z,102022.25
2022-08-31T12:35:40.322Z,102017.00
2022-08-31T12:38:10.170Z,102016.34
2022-08-31T12:40:45.253Z,102007.91
2022-08-31T12:43:18.175Z,102004.28
2022-08-31T12:46:18.923Z,102009.91
2022-08-31T12:49:10.371Z,102014.94
2022-08-31T12:51:46.575Z,102011.25
2022-08-31T12:54:41.330Z,102009.84
2022-08-31T12:57:26.966Z,102003.59
2022-08-31T13:00:04.809Z,102006.34
2022-08-31T13:02:35.837Z,102012.25
2022-08-31T13:05:04.188Z,102003.25
2022-08-31T13:07:35.888Z,101995.63
2022-08-31T13:10:07.375Z,102011.16
2022-08-31T13:12:35.749Z,102001.75
2022-08-31T13:15:03.857Z,102002.09
2022-08-31T13:17:37.699Z,101997.75
2022-08-31T13:20:08.841Z,101993.44
2022-08-31T13:22:41.359Z,101995.84
2022-08-31T13:25:24.965Z,101980.25
2022-08-31T13:27:53.125Z,101981.91
2022-08-31T13:30:25.400Z,101984.75
2022-08-31T13:32:54.772Z,101997.19
2022-08-31T13:35:26.242Z,101984.41
2022-08-31T13:38:04.675Z,101988.78
2022-08-31T13:40:37.329Z,101979.22
2022-08-31T13:43:08.453Z,101980.13
2022-08-31T13:45:42.068Z,101979.56
2022-08-31T13:48:16.667Z,101982.59
2022-08-31T13:50:53.110Z,101968.50
2022-08-31T13:53:42.160Z,101975.34
2022-08-31T13:56:38.660Z,101976.88
2022-08-31T13:59:25.141Z,101970.53
2022-08-31T14:01:56.392Z,101970.41
2022-08-31T14:04:46.437Z,101975.19
2022-08-31T14:07:20.418Z,101973.50
2022-08-31T14:09:52.894Z,101979.50
2022-08-31T14:12:34.752Z,101975.59
2022-08-31T14:15:09.240Z,101982.94
2022-08-31T14:17:42.461Z,101982.66
2022-08-31T14:20:27.315Z,101981.00
2022-08-31T14:22:55.195Z,101980.13
2022-08-31T14:25:24.535Z,101982.69
2022-08-31T14:27:52.432Z,101990.03
2022-08-31T14:30:21.057Z,101980.84
2022-08-31T14:32:49.001Z,101980.28
2022-08-31T14:35:17.059Z,101977.53
2022-08-31T14:37:45.705Z,101982.16
2022-08-31T14:40:13.968Z,101982.00
2022-08-31T14:42:44.265Z,101980.16
2022-08-31T14:45:18.579Z,101987.97
2022-08-31T14:47:50.797Z,101976.91
2022-08-31T14:50:21.520Z,101986.44
2022-08-31T14:52:53.027Z,101976.03
2022-08-31T14:55:23.132Z,101971.44
2022-08-31T14:57:58.238Z,101977.41
2022-08-31T15:00:31.640Z,101961.56
2022-08-31T15:03:02.482Z,101978.41
2022-08-31T15:05:32.296Z,101978.22
2022-08-31T15:08:00.213Z,101975.72
2022-08-31T15:10:28.852Z,101957.78
2022-08-31T15:13:05.517Z,101956.19
2022-08-31T15:15:33.549Z,101951.81
2022-08-31T15:18:04.704Z,101954.03
2022-08-31T15:20:39.908Z,101954.25
2022-08-31T15:23:09.442Z,101950.25
2022-08-31T15:25:39.238Z,101948.03
2022-08-31T15:28:08.740Z,101958.63
2022-08-31T15:30:39.819Z,101950.78
2022-08-31T15:33:11.065Z,101949.41
2022-08-31T15:35:41.720Z,101947.22
2022-08-31T15:38:10.553Z,101955.34
2022-08-31T15:40:39.953Z,101948.69
2022-08-31T15:43:15.721Z,101941.13
2022-08-31T15:45:43.868Z,101936.94
2022-08-31T15:48:29.666Z,101942.56
2022-08-31T15:51:00.192Z,101927.19
2022-08-31T15:53:30.228Z,101931.75
2022-08-31T15:56:05.442Z,101930.19
2022-08-31T15:58:38.909Z,101929.06
2022-08-31T16:01:12.541Z,101921.03
2022-08-31T16:03:41.955Z,101929.47
2022-08-31T16:06:11.194Z,101927.41
2022-08-31T16:08:41.186Z,101917.00
2022-08-31T16:11:11.321Z,101922.63
2022-08-31T16:13:47.872Z,101913.75
2022-08-31T16:16:18.327Z,101917.84
2022-08-31T16:18:48.274Z,101912.59
2022-08-31T16:21:20.157Z,101920.41
2022-08-31T16:23:50.325Z,101925.72
2022-08-31T16:26:21.526Z,101924.34
2022-08-31T16:28:50.972Z,101916.50
2022-08-31T16:31:18.934Z,101919.06
2022-08-31T16:33:48.074Z,101916.81
2022-08-31T16:36:18.296Z,101909.34
2022-08-31T16:38:46.843Z,101924.03
2022-08-31T16:41:15.934Z,101933.25
2022-08-31T16:43:43.821Z,101928.66
2022-08-31T16:46:37.241Z,101931.84
2022-08-31T16:49:20.009Z,101936.41
2022-08-31T16:51:50.480Z,101937.69
2022-08-31T16:54:19.850Z,101937.69
2022-08-31T16:56:50.476Z,101933.88
2022-08-31T16:59:20.164Z,101943.75
2022-08-31T17:01:49.423Z,101937.22
2022-08-31T17:04:35.045Z,101945.84
2022-08-31T17:07:10.631Z,101944.44
2022-08-31T17:09:40.003Z,101949.66
2022-08-31T17:12:12.948Z,101949.81
2022-08-31T17:14:45.601Z,101947.72
2022-08-31T17:17:16.735Z,101946.88
2022-08-31T17:19:45.890Z,101951.84
2022-08-31T17:22:23.300Z,101949.63
2022-08-31T17:24:56.262Z,101950.59
2022-08-31T17:27:26.074Z,101950.84
2022-08-31T17:29:56.058Z,101958.00
2022-08-31T17:32:27.635Z,101960.16
2022-08-31T17:34:56.834Z,101958.38
2022-08-31T17:37:28.336Z,101959.00
2022-08-31T17:39:57.342Z,101955.59
2022-08-31T17:42:27.934Z,101961.72
2022-08-31T17:44:57.110Z,101961.81
2022-08-31T17:47:27.382Z,101967.56
2022-08-31T17:49:55.511Z,101968.78
2022-08-31T17:52:23.663Z,101973.69
2022-08-31T17:54:52.300Z,101974.03
2022-08-31T17:57:24.861Z,101979.25
2022-08-31T17:59:54.715Z,101980.06
2022-08-31T18:02:26.472Z,101971.72
2022-08-31T18:04:56.121Z,101985.28
2022-08-31T18:07:24.369Z,101978.03
2022-08-31T18:09:53.730Z,101976.16
2022-08-31T18:12:22.767Z,101984.94
2022-08-31T18:14:51.239Z,101980.38
2022-08-31T18:17:21.517Z,101989.91
2022-08-31T18:19:49.799Z,101992.31
2022-08-31T18:22:19.743Z,101998.69
2022-08-31T18:24:47.921Z,101998.25
2022-08-31T18:27:16.103Z,102003.41
2022-08-31T18:29:44.991Z,102008.88
2022-08-31T18:32:13.627Z,102012.41
2022-08-31T18:34:44.619Z,102012.00
2022-08-31T18:37:13.382Z,102020.75
2022-08-31T18:40:02.347Z,102024.72
2022-08-31T18:42:49.608Z,102020.00
2022-08-31T18:45:19.322Z,102020.41
2022-08-31T18:48:13.598Z,102020.22
2022-08-31T18:50:38.508Z,102012.38
2022-08-31T18:53:11.135Z,102021.81
2022-08-31T18:55:45.012Z,102028.97
2022-08-31T18:58:13.097Z,102021.91
2022-08-31T19:00:41.466Z,102026.97
2022-08-31T19:03:09.563Z,102024.88
2022-08-31T19:05:40.023Z,102025.94
2022-08-31T19:08:08.242Z,102029.91
2022-08-31T19:10:36.174Z,102022.03
2022-08-31T19:17:19.718Z,102026.88
2022-08-31T19:19:49.895Z,102034.50
2022-08-31T19:22:20.189Z,102032.59
2022-08-31T19:24:49.709Z,102037.50
2022-08-31T19:27:17.725Z,102033.84
2022-08-31T19:29:45.650Z,102041.00
2022-08-31T19:32:13.826Z,102035.56
2022-08-31T19:34:43.827Z,102037.94
2022-08-31T19:37:13.563Z,102036.56
2022-08-31T19:39:45.837Z,102044.31
2022-08-31T19:42:15.114Z,102036.16
2022-08-31T19:44:55.878Z,102037.41
2022-08-31T19:47:38.689Z,102043.28
2022-08-31T19:50:13.538Z,102037.53
2022-08-31T19:52:42.346Z,102037.59
2022-08-31T19:55:11.582Z,102040.97
2022-08-31T19:57:43.334Z,102047.25
2022-08-31T20:00:12.538Z,102042.78
2022-08-31T20:02:42.173Z,102044.09
2022-08-31T20:05:12.126Z,102037.22
2022-08-31T20:07:41.409Z,102034.97
2022-08-31T20:10:10.483Z,102039.25
2022-08-31T20:12:39.494Z,102044.00
2022-08-31T20:15:08.398Z,102051.56
2022-08-31T20:17:36.483Z,102052.00
2022-08-31T20:20:04.990Z,102045.72
2022-08-31T20:22:34.378Z,102044.31
2022-08-31T20:25:03.479Z,102045.00
2022-08-31T20:27:32.096Z,102054.44
2022-08-31T20:30:00.106Z,102058.56
2022-08-31T20:32:28.976Z,102061.44
2022-08-31T20:34:57.638Z,102058.88
2022-08-31T20:37:25.639Z,102052.84
2022-08-31T20:39:54.941Z,102058.56
2022-08-31T20:42:23.309Z,102050.41
2022-08-31T20:44:51.232Z,102050.88
2022-08-31T20:47:36.634Z,102052.84
2022-08-31T20:50:07.195Z,102065.03
2022-08-31T20:52:36.132Z,102063.28
2022-08-31T20:55:07.262Z,102072.84
2022-08-31T20:57:37.567Z,102063.44
2022-08-31T21:00:07.724Z,102061.03
2022-08-31T21:02:36.454Z,102065.84
2022-08-31T21:07:57.505Z,102071.44
2022-08-31T21:10:35.658Z,102074.00
2022-08-31T21:13:08.782Z,102075.44
2022-08-31T21:15:42.045Z,102074.00
2022-08-31T21:18:09.794Z,102076.44
2022-08-31T21:20:37.783Z,102083.69
2022-08-31T21:23:10.444Z,102083.84
2022-08-31T21:25:44.922Z,102075.69
2022-08-31T21:28:18.308Z,102072.84
2022-08-31T21:30:49.143Z,102078.28
2022-08-31T21:33:17.639Z,102080.25
2022-08-31T21:35:45.615Z,102083.97
2022-08-31T21:38:13.635Z,102079.84
2022-08-31T21:40:49.534Z,102082.41
2022-08-31T21:43:17.533Z,102080.69
2022-08-31T21:45:45.529Z,102085.38
2022-08-31T21:48:13.468Z,102079.66
2022-08-31T21:50:41.411Z,102082.56
2022-08-31T21:53:09.459Z,102087.66
2022-08-31T21:55:38.478Z,102085.13
2022-08-31T21:58:07.891Z,102081.16
2022-08-31T22:00:41.768Z,102086.69
2022-08-31T22:03:10.579Z,102092.69
2022-08-31T22:05:41.579Z,102082.56
2022-08-31T22:08:09.613Z,102089.13
2022-08-31T22:10:40.954Z,102095.41
2022-08-31T22:13:12.437Z,102098.25
2022-08-31T22:15:42.670Z,102098.13
2022-08-31T22:18:46.146Z,102095.00
2022-08-31T22:20:59.723Z,102091.41
2022-08-31T22:23:27.722Z,102094.28
2022-08-31T22:25:55.708Z,102097.97
2022-08-31T22:28:27.676Z,102097.53
2022-08-31T22:30:56.388Z,102091.97
2022-08-31T22:33:24.419Z,102098.56
2022-08-31T22:35:52.432Z,102100.56
2022-08-31T22:38:20.564Z,102102.00
2022-08-31T22:40:49.952Z,102104.97
2022-08-31T22:43:18.700Z,102096.66
2022-08-31T22:45:49.074Z,102097.38
2022-08-31T22:48:17.627Z,102097.13
2022-08-31T22:50:45.682Z,102099.97
2022-08-31T22:53:14.065Z,102100.09
2022-08-31T22:55:43.127Z,102094.69
2022-08-31T22:58:12.506Z,102106.25
2022-08-31T23:00:40.861Z,102107.69
2022-08-31T23:03:13.596Z,102099.09
2022-08-31T23:05:43.888Z,102098.81
2022-08-31T23:08:12.354Z,102100.81
2022-08-31T23:10:40.398Z,102100.94
2022-08-31T23:13:08.420Z,102109.66
2022-08-31T23:15:38.252Z,102105.06
2022-08-31T23:18:10.380Z,102108.19
2022-08-31T23:20:41.764Z,102103.13
2022-08-31T23:23:10.413Z,102106.22
2022-08-31T23:25:40.390Z,102109.31
2022-08-31T23:28:08.675Z,102098.41
2022-08-31T23:30:37.798Z,102104.19
2022-08-31T23:33:05.814Z,102092.78
2022-08-31T23:35:37.345Z,102090.56
2022-08-31T23:38:06.801Z,102096.00
2022-08-31T23:40:34.961Z,102093.59
2022-08-31T23:43:04.685Z,102096.69
2022-08-31T23:45:33.568Z,102096.00
2022-08-31T23:48:01.516Z,102089.56
2022-08-31T23:50:29.561Z,102091.34
2022-08-31T23:52:57.628Z,102087.88
2022-08-31T23:55:29.004Z,102093.59
2022-08-31T23:57:59.405Z,102082.63
